Time;durP1;ratioP1;P1;durP2;ratioP2;P2;SDS_P1;SDS_P2;PMS_P1;PMS_P2;Temp;Humidity;BMP_temperature;BMP_pressure;BME280_temperature;BME280_humidity;BME280_pressure;Samples;Min_cycle;Max_cycle;Signal;HPM_P1;HPM_P2
2021/08/09 00:02:02;;;;;;;;;;;22.80;70.10;;;;;;5215663;28;19951;-70
2021/08/09 00:04:35;;;;;;;;;;;22.80;70.40;;;;;;5221357;28;19939;-70
2021/08/09 00:07:08;;;;;;;;;;;22.80;71.20;;;;;;5222618;28;19935;-70
2021/08/09 00:09:40;;;;;;;;;;;22.80;70.60;;;;;;5223346;28;20270;-71
2021/08/09 00:12:12;;;;;;;;;;;22.80;70.60;;;;;;5226298;28;20386;-70
2021/08/09 00:14:45;;;;;;;;;;;22.80;70.50;;;;;;5227582;28;19943;-70
2021/08/09 00:17:17;;;;;;;;;;;22.80;70.50;;;;;;5221858;28;19925;-71
2021/08/09 00:19:49;;;;;;;;;;;22.80;70.50;;;;;;5224142;28;19925;-70
2021/08/09 00:22:21;;;;;;;;;;;22.80;70.40;;;;;;5222965;28;19929;-70
2021/08/09 00:24:54;;;;;;;;;;;22.80;70.70;;;;;;5221349;28;19929;-70
2021/08/09 00:27:26;;;;;;;;;;;22.80;70.30;;;;;;5218071;28;19948;-70
2021/08/09 00:29:58;;;;;;;;;;;22.80;70.30;;;;;;5217500;28;20880;-70
2021/08/09 00:32:30;;;;;;;;;;;22.70;70.40;;;;;;5221167;28;20015;-70
2021/08/09 00:35:07;;;;;;;;;;;22.80;70.60;;;;;;5204095;28;19933;-70
2021/08/09 00:37:40;;;;;;;;;;;22.80;70.50;;;;;;5205720;28;19932;-71
2021/08/09 00:40:13;;;;;;;;;;;22.80;70.50;;;;;;5207625;28;20426;-71
2021/08/09 00:42:46;;;;;;;;;;;22.80;70.60;;;;;;5206400;28;19933;-70
2021/08/09 00:45:18;;;;;;;;;;;22.70;70.40;;;;;;5189962;28;19929;-70
2021/08/09 00:47:53;;;;;;;;;;;22.70;70.50;;;;;;5215638;28;19936;-71
2021/08/09 00:50:25;;;;;;;;;;;22.70;70.60;;;;;;5215972;28;19932;-71
2021/08/09 00:53:02;;;;;;;;;;;22.70;70.70;;;;;;5221087;28;19935;-69
2021/08/09 00:55:42;;;;;;;;;;;22.70;70.60;;;;;;5210123;28;20995;-69
2021/08/09 00:58:15;;;;;;;;;;;22.70;70.50;;;;;;5208416;28;19924;-69
2021/08/09 01:00:48;;;;;;;;;;;22.70;70.10;;;;;;5196850;28;19924;-70
2021/08/09 01:03:20;;;;;;;;;;;22.70;70.10;;;;;;5214085;28;20487;-69
2021/08/09 01:05:52;;;;;;;;;;;22.70;70.20;;;;;;5219266;28;19933;-70
2021/08/09 01:08:25;;;;;;;;;;;22.70;70.10;;;;;;5208950;28;19932;-69
2021/08/09 01:11:15;;;;;;;;;;;22.70;70.00;;;;;;5218969;28;19944;-70
2021/08/09 01:14:06;;;;;;;;;;;22.70;70.20;;;;;;5218494;28;19929;-69
2021/08/09 01:16:39;;;;;;;;;;;22.70;70.20;;;;;;5221650;28;19929;-69
2021/08/09 01:19:20;;;;;;;;;;;22.70;70.30;;;;;;5222752;28;20293;-69
2021/08/09 01:22:09;;;;;;;;;;;22.70;70.00;;;;;;5214376;28;19952;-69
2021/08/09 01:24:59;;;;;;;;;;;22.70;69.90;;;;;;5222415;28;19929;-70
2021/08/09 01:27:32;;;;;;;;;;;22.60;70.00;;;;;;5225010;28;20293;-69
2021/08/09 01:30:07;;;;;;;;;;;22.60;69.70;;;;;;5210553;28;19935;-69
2021/08/09 01:32:41;;;;;;;;;;;22.60;69.60;;;;;;5212309;28;19924;-69
2021/08/09 01:35:14;;;;;;;;;;;22.60;69.70;;;;;;5220844;28;19928;-69
2021/08/09 01:37:49;;;;;;;;;;;22.60;69.90;;;;;;5202480;28;20199;-69
2021/08/09 01:40:23;;;;;;;;;;;22.60;69.90;;;;;;5223606;28;19932;-69
2021/08/09 01:42:56;;;;;;;;;;;22.60;70.30;;;;;;5207776;28;19925;-68
2021/08/09 01:45:34;;;;;;;;;;;22.60;69.90;;;;;;5205486;28;20408;-69
2021/08/09 01:48:07;;;;;;;;;;;22.60;69.70;;;;;;5216132;28;19932;-69
2021/08/09 01:50:43;;;;;;;;;;;22.60;69.90;;;;;;5206130;28;19936;-70
2021/08/09 01:53:16;;;;;;;;;;;22.60;70.10;;;;;;5210732;28;19939;-69
2021/08/09 01:55:49;;;;;;;;;;;22.60;69.80;;;;;;5209401;28;19983;-70
2021/08/09 01:58:23;;;;;;;;;;;22.60;70.30;;;;;;5209946;28;19931;-69
2021/08/09 02:00:56;;;;;;;;;;;22.60;70.50;;;;;;5201614;28;20385;-70
2021/08/09 02:03:30;;;;;;;;;;;22.60;70.50;;;;;;5206396;28;19928;-69
2021/08/09 02:06:04;;;;;;;;;;;22.60;70.60;;;;;;5219247;28;20294;-70
2021/08/09 02:08:37;;;;;;;;;;;22.60;70.60;;;;;;5222747;28;20378;-69
2021/08/09 02:11:13;;;;;;;;;;;22.60;70.50;;;;;;5220761;28;20298;-69
2021/08/09 02:13:49;;;;;;;;;;;22.60;70.30;;;;;;5200162;28;19929;-70
2021/08/09 02:16:28;;;;;;;;;;;22.60;70.50;;;;;;5214931;28;19939;-69
2021/08/09 02:19:07;;;;;;;;;;;22.60;70.50;;;;;;5202268;28;19928;-70
2021/08/09 02:21:52;;;;;;;;;;;22.60;70.60;;;;;;5205275;28;19932;-69
2021/08/09 02:24:31;;;;;;;;;;;22.60;70.40;;;;;;5201670;28;19943;-68
2021/08/09 02:27:12;;;;;;;;;;;22.50;70.50;;;;;;5224123;28;20305;-69
2021/08/09 02:29:50;;;;;;;;;;;22.60;70.50;;;;;;5201296;28;19924;-68
2021/08/09 02:32:27;;;;;;;;;;;22.60;70.40;;;;;;5209239;28;19931;-69
2021/08/09 02:35:01;;;;;;;;;;;22.60;70.20;;;;;;5218405;28;19928;-68
2021/08/09 02:37:33;;;;;;;;;;;22.60;70.40;;;;;;5208093;28;19925;-68
2021/08/09 02:40:06;;;;;;;;;;;22.50;70.10;;;;;;5204252;28;19932;-68
2021/08/09 02:42:38;;;;;;;;;;;22.60;70.20;;;;;;5214482;28;19928;-68
2021/08/09 02:45:11;;;;;;;;;;;22.60;70.90;;;;;;5223834;28;20221;-68
2021/08/09 02:47:44;;;;;;;;;;;22.50;70.20;;;;;;5205027;28;19928;-68
2021/08/09 02:50:16;;;;;;;;;;;22.50;70.20;;;;;;5208755;28;19940;-68
2021/08/09 02:52:49;;;;;;;;;;;22.50;70.00;;;;;;5210671;28;19936;-69
2021/08/09 02:55:22;;;;;;;;;;;22.50;70.50;;;;;;5202800;28;19924;-69
2021/08/09 02:57:55;;;;;;;;;;;22.50;70.50;;;;;;5210473;28;19924;-69
2021/08/09 03:00:27;;;;;;;;;;;22.50;70.40;;;;;;5219847;28;20309;-68
2021/08/09 03:03:00;;;;;;;;;;;22.50;70.30;;;;;;5206926;28;19924;-69
2021/08/09 03:05:33;;;;;;;;;;;22.50;70.20;;;;;;5199620;28;19924;-68
2021/08/09 03:08:10;;;;;;;;;;;22.50;70.40;;;;;;5218723;28;19935;-68
2021/08/09 03:10:42;;;;;;;;;;;22.50;70.30;;;;;;5208309;28;19933;-68
2021/08/09 03:13:18;;;;;;;;;;;22.50;70.20;;;;;;5207732;28;20684;-68
2021/08/09 03:15:51;;;;;;;;;;;22.50;70.30;;;;;;5201222;28;19929;-69
2021/08/09 03:18:24;;;;;;;;;;;22.50;70.40;;;;;;5202325;28;19959;-68
2021/08/09 03:21:08;;;;;;;;;;;22.50;70.10;;;;;;5191111;28;20211;-68
2021/08/09 03:23:43;;;;;;;;;;;22.50;70.30;;;;;;5209920;28;19928;-69
2021/08/09 03:26:15;;;;;;;;;;;22.50;70.00;;;;;;5206773;28;19929;-70
2021/08/09 03:28:47;;;;;;;;;;;22.50;70.20;;;;;;5221898;28;19929;-69
2021/08/09 03:31:19;;;;;;;;;;;22.50;70.30;;;;;;5217837;28;19932;-68
2021/08/09 03:33:52;;;;;;;;;;;22.50;70.00;;;;;;5224516;28;19931;-69
2021/08/09 03:36:24;;;;;;;;;;;22.50;69.90;;;;;;5194365;28;20389;-69
2021/08/09 03:38:56;;;;;;;;;;;22.50;69.90;;;;;;5219541;28;20305;-68
2021/08/09 03:41:29;;;;;;;;;;;22.40;70.70;;;;;;5218940;28;19928;-69
2021/08/09 03:44:01;;;;;;;;;;;22.40;70.20;;;;;;5202815;28;20301;-68
2021/08/09 03:46:34;;;;;;;;;;;22.50;70.10;;;;;;5210270;28;19925;-70
2021/08/09 03:49:09;;;;;;;;;;;22.40;70.20;;;;;;5209056;28;19928;-69
2021/08/09 03:51:41;;;;;;;;;;;22.40;70.20;;;;;;5221966;28;20313;-68
2021/08/09 03:54:14;;;;;;;;;;;22.50;70.40;;;;;;5220238;28;20420;-69
2021/08/09 03:56:47;;;;;;;;;;;22.50;70.60;;;;;;5201643;28;19935;-69
2021/08/09 03:59:19;;;;;;;;;;;22.40;70.50;;;;;;5201790;28;19935;-68
2021/08/09 04:01:51;;;;;;;;;;;22.50;70.40;;;;;;5204969;28;19932;-68
2021/08/09 04:04:24;;;;;;;;;;;22.40;70.30;;;;;;5201768;28;19939;-69
2021/08/09 04:06:56;;;;;;;;;;;22.40;70.40;;;;;;5218397;28;19932;-69
2021/08/09 04:09:28;;;;;;;;;;;22.40;70.30;;;;;;5223292;28;19928;-69
2021/08/09 04:12:00;;;;;;;;;;;22.40;70.40;;;;;;5203797;28;19928;-69
2021/08/09 04:14:34;;;;;;;;;;;22.40;70.40;;;;;;5222586;28;19931;-69
2021/08/09 04:17:07;;;;;;;;;;;22.40;70.50;;;;;;5204063;28;19944;-69
2021/08/09 04:19:39;;;;;;;;;;;22.50;70.30;;;;;;5203174;28;21800;-69
2021/08/09 04:22:12;;;;;;;;;;;22.40;70.50;;;;;;5204235;28;20505;-70
2021/08/09 04:24:44;;;;;;;;;;;22.40;70.40;;;;;;5216264;28;19928;-69
2021/08/09 04:27:17;;;;;;;;;;;22.40;70.60;;;;;;5210257;28;19925;-69
2021/08/09 04:29:49;;;;;;;;;;;22.40;70.50;;;;;;5205883;28;20313;-68
2021/08/09 04:32:22;;;;;;;;;;;22.40;70.60;;;;;;5192494;28;20417;-68
2021/08/09 04:34:54;;;;;;;;;;;22.40;70.70;;;;;;5208445;28;19925;-68
2021/08/09 04:37:26;;;;;;;;;;;22.40;70.60;;;;;;5205696;28;19925;-69
2021/08/09 04:39:58;;;;;;;;;;;22.40;70.50;;;;;;5208027;28;19935;-69
2021/08/09 04:42:31;;;;;;;;;;;22.40;70.40;;;;;;5217120;28;19925;-68
2021/08/09 04:45:03;;;;;;;;;;;22.40;70.50;;;;;;5219512;28;19925;-69
2021/08/09 04:47:36;;;;;;;;;;;22.40;70.60;;;;;;5221175;28;19936;-68
2021/08/09 04:50:09;;;;;;;;;;;22.40;70.40;;;;;;5205699;28;20417;-68
2021/08/09 04:52:42;;;;;;;;;;;22.40;70.60;;;;;;5204473;28;20716;-69
2021/08/09 04:55:19;;;;;;;;;;;22.40;70.50;;;;;;5191412;28;19925;-68
2021/08/09 04:57:51;;;;;;;;;;;22.40;70.50;;;;;;5191034;28;20305;-69
2021/08/09 05:00:24;;;;;;;;;;;22.40;70.50;;;;;;5187170;28;20405;-69
2021/08/09 05:02:56;;;;;;;;;;;22.40;70.50;;;;;;5209076;28;19940;-70
2021/08/09 05:05:29;;;;;;;;;;;22.40;70.60;;;;;;5187841;28;20030;-71
2021/08/09 05:08:01;;;;;;;;;;;22.40;70.50;;;;;;5208163;28;19939;-70
2021/08/09 05:10:34;;;;;;;;;;;22.40;69.80;;;;;;5186981;28;23185;-70
2021/08/09 05:13:07;;;;;;;;;;;22.40;70.00;;;;;;5204952;28;19940;-71
2021/08/09 05:15:40;;;;;;;;;;;22.30;70.00;;;;;;5216299;28;19928;-72
2021/08/09 05:18:14;;;;;;;;;;;22.30;70.20;;;;;;5198199;28;19929;-69
2021/08/09 05:20:47;;;;;;;;;;;22.30;70.20;;;;;;5213048;28;19932;-69
2021/08/09 05:23:19;;;;;;;;;;;22.30;70.30;;;;;;5203445;28;20329;-71
2021/08/09 05:25:51;;;;;;;;;;;22.30;70.30;;;;;;5206470;28;21222;-71
2021/08/09 05:28:23;;;;;;;;;;;22.30;70.40;;;;;;5177781;28;20844;-70
2021/08/09 05:30:55;;;;;;;;;;;22.30;70.30;;;;;;5193027;28;20401;-71
2021/08/09 05:33:28;;;;;;;;;;;22.30;70.30;;;;;;5200116;28;19934;-71
2021/08/09 05:36:01;;;;;;;;;;;22.30;70.40;;;;;;5196877;28;19933;-70
2021/08/09 05:38:34;;;;;;;;;;;22.30;70.40;;;;;;5216900;28;19932;-70
2021/08/09 05:41:09;;;;;;;;;;;22.30;70.40;;;;;;5185222;28;20490;-70
2021/08/09 05:43:41;;;;;;;;;;;22.30;70.60;;;;;;5182168;28;19939;-71
2021/08/09 05:46:14;;;;;;;;;;;22.30;70.70;;;;;;5199199;28;25429;-70
2021/08/09 05:48:48;;;;;;;;;;;22.30;70.70;;;;;;5190625;28;20321;-70
2021/08/09 05:51:21;;;;;;;;;;;22.30;70.70;;;;;;5204349;28;19939;-70
2021/08/09 05:53:54;;;;;;;;;;;22.30;70.70;;;;;;5199237;28;20692;-69
2021/08/09 05:56:26;;;;;;;;;;;22.30;70.70;;;;;;5203003;28;19959;-69
2021/08/09 05:59:04;;;;;;;;;;;22.30;70.80;;;;;;5195705;28;19933;-68
2021/08/09 06:01:36;;;;;;;;;;;22.30;70.70;;;;;;5205675;28;19932;-69
2021/08/09 06:04:09;;;;;;;;;;;22.30;70.80;;;;;;5198652;28;19932;-68
2021/08/09 06:06:45;;;;;;;;;;;22.30;71.30;;;;;;5195617;28;19928;-69
2021/08/09 06:09:24;;;;;;;;;;;22.30;71.70;;;;;;5211326;28;19936;-68
2021/08/09 06:11:58;;;;;;;;;;;22.40;71.80;;;;;;5209519;28;19976;-69
2021/08/09 06:14:30;;;;;;;;;;;22.40;71.60;;;;;;5197251;28;20708;-69
2021/08/09 06:17:04;;;;;;;;;;;22.40;71.80;;;;;;5209807;28;19936;-68
2021/08/09 06:19:37;;;;;;;;;;;22.40;71.70;;;;;;5188272;28;19933;-68
2021/08/09 06:22:09;;;;;;;;;;;22.50;71.70;;;;;;5208544;28;19928;-67
2021/08/09 06:24:48;;;;;;;;;;;22.50;71.70;;;;;;5190608;28;19932;-68
2021/08/09 06:27:20;;;;;;;;;;;22.50;71.80;;;;;;5198507;28;19928;-68
2021/08/09 06:29:53;;;;;;;;;;;22.50;71.70;;;;;;5198584;28;20393;-68
2021/08/09 06:32:27;;;;;;;;;;;22.50;71.70;;;;;;5190689;28;20043;-67
2021/08/09 06:35:00;;;;;;;;;;;22.50;72.00;;;;;;5183312;28;19925;-68
2021/08/09 06:37:35;;;;;;;;;;;22.50;71.90;;;;;;4499711;28;10000799;-67
2021/08/09 06:40:08;;;;;;;;;;;22.50;71.80;;;;;;5204116;28;20333;-67
2021/08/09 06:42:41;;;;;;;;;;;22.50;71.80;;;;;;5192890;28;20413;-67
2021/08/09 06:45:23;;;;;;;;;;;22.60;71.90;;;;;;5204934;28;19932;-68
2021/08/09 06:47:55;;;;;;;;;;;22.60;72.00;;;;;;5202800;28;19928;-67
2021/08/09 06:50:28;;;;;;;;;;;22.60;71.90;;;;;;5189011;28;19932;-67
2021/08/09 06:53:01;;;;;;;;;;;22.60;72.00;;;;;;5175403;28;19932;-67
2021/08/09 06:55:33;;;;;;;;;;;22.60;72.00;;;;;;5177093;28;19924;-67
2021/08/09 06:58:06;;;;;;;;;;;22.60;72.00;;;;;;5208801;28;19928;-68
2021/08/09 07:00:38;;;;;;;;;;;22.60;72.00;;;;;;5223908;28;20213;-68
2021/08/09 07:03:16;;;;;;;;;;;22.60;72.00;;;;;;5213557;28;19936;-67
2021/08/09 07:05:48;;;;;;;;;;;22.60;71.90;;;;;;5214631;28;19932;-67
2021/08/09 07:08:25;;;;;;;;;;;22.60;71.80;;;;;;5219550;28;19928;-67
2021/08/09 07:10:58;;;;;;;;;;;22.60;71.90;;;;;;5219560;28;19924;-68
2021/08/09 07:13:30;;;;;;;;;;;22.60;71.80;;;;;;5217517;28;20378;-67
2021/08/09 07:16:03;;;;;;;;;;;22.60;71.80;;;;;;5216203;28;19932;-69
2021/08/09 07:18:35;;;;;;;;;;;22.60;71.80;;;;;;5215724;28;19936;-70
2021/08/09 07:21:09;;;;;;;;;;;22.60;71.80;;;;;;5214269;28;19939;-69
2021/08/09 07:23:43;;;;;;;;;;;22.60;71.80;;;;;;5216838;28;20341;-69
2021/08/09 07:26:15;;;;;;;;;;;22.70;71.80;;;;;;5230782;28;19929;-69
2021/08/09 07:28:47;;;;;;;;;;;22.70;71.80;;;;;;5217194;28;20304;-69
2021/08/09 07:31:19;;;;;;;;;;;22.70;71.80;;;;;;5222230;28;20344;-69
2021/08/09 07:33:52;;;;;;;;;;;22.70;71.80;;;;;;5216301;28;19936;-69
2021/08/09 07:36:24;;;;;;;;;;;22.70;71.80;;;;;;5232488;28;19928;-69
2021/08/09 07:39:07;;;;;;;;;;;22.70;71.80;;;;;;5219387;28;20411;-69
2021/08/09 07:41:39;;;;;;;;;;;22.70;71.80;;;;;;5219006;28;20135;-69
2021/08/09 07:44:12;;;;;;;;;;;22.70;71.80;;;;;;5216525;28;19932;-69
2021/08/09 07:46:44;;;;;;;;;;;22.70;71.80;;;;;;5221966;28;19929;-67
2021/08/09 07:49:16;;;;;;;;;;;22.70;71.80;;;;;;5213359;28;19925;-67
2021/08/09 07:51:49;;;;;;;;;;;22.70;71.80;;;;;;5218347;28;19924;-68
2021/08/09 07:54:21;;;;;;;;;;;22.70;71.80;;;;;;5233961;28;19933;-68
2021/08/09 07:56:53;;;;;;;;;;;22.70;71.80;;;;;;5214370;28;19936;-69
2021/08/09 07:59:26;;;;;;;;;;;22.70;71.80;;;;;;5233585;28;19924;-69
2021/08/09 08:02:02;;;;;;;;;;;22.70;71.80;;;;;;5217021;28;19936;-67
2021/08/09 08:04:34;;;;;;;;;;;22.70;71.80;;;;;;5231065;28;19924;-67
2021/08/09 08:07:06;;;;;;;;;;;22.70;71.80;;;;;;5230944;28;19945;-68
2021/08/09 08:09:39;;;;;;;;;;;22.70;72.40;;;;;;5228904;28;19924;-67
2021/08/09 08:12:11;;;;;;;;;;;22.70;71.80;;;;;;5220906;28;19929;-67
2021/08/09 08:14:45;;;;;;;;;;;22.80;71.80;;;;;;5216390;28;19928;-67
2021/08/09 08:17:19;;;;;;;;;;;22.80;71.80;;;;;;5222395;28;19929;-67
2021/08/09 08:19:51;;;;;;;;;;;22.80;71.80;;;;;;5220893;28;20397;-69
2021/08/09 08:22:24;;;;;;;;;;;22.80;71.80;;;;;;5221230;28;19935;-69
2021/08/09 08:24:56;;;;;;;;;;;22.80;71.80;;;;;;5218477;28;19928;-69
2021/08/09 08:27:29;;;;;;;;;;;22.80;72.40;;;;;;5215646;28;19933;-69
2021/08/09 08:30:04;;;;;;;;;;;22.80;71.80;;;;;;5218445;28;19925;-69
2021/08/09 08:32:52;;;;;;;;;;;22.80;71.70;;;;;;5219589;28;19940;-69
2021/08/09 08:35:24;;;;;;;;;;;22.80;71.80;;;;;;5204554;28;19947;-69
2021/08/09 08:37:57;;;;;;;;;;;22.80;71.80;;;;;;5218791;28;20123;-69
2021/08/09 08:40:35;;;;;;;;;;;22.80;71.70;;;;;;5217984;28;19933;-67
2021/08/09 08:43:17;;;;;;;;;;;22.80;71.70;;;;;;4170846;28;10000199;-67
2021/08/09 08:46:00;;;;;;;;;;;22.80;71.70;;;;;;5230659;28;19947;-67
2021/08/09 08:48:34;;;;;;;;;;;22.80;71.70;;;;;;5216432;28;19936;-67
2021/08/09 08:51:24;;;;;;;;;;;22.80;71.70;;;;;;5229623;28;19924;-67
2021/08/09 08:53:59;;;;;;;;;;;22.90;71.70;;;;;;5229899;28;19928;-67
2021/08/09 08:56:31;;;;;;;;;;;22.90;71.80;;;;;;5230927;28;19924;-69
2021/08/09 08:59:05;;;;;;;;;;;22.90;71.70;;;;;;5221022;28;19928;-67
2021/08/09 09:01:39;;;;;;;;;;;22.90;71.70;;;;;;5233413;28;20103;-67
2021/08/09 09:04:25;;;;;;;;;;;22.90;71.60;;;;;;5232322;28;20278;-67
2021/08/09 09:07:00;;;;;;;;;;;22.90;71.60;;;;;;5230677;28;20297;-67
2021/08/09 09:09:34;;;;;;;;;;;22.90;71.60;;;;;;5231288;28;19940;-67
2021/08/09 09:12:14;;;;;;;;;;;22.90;71.60;;;;;;5232504;28;19947;-67
2021/08/09 09:14:59;;;;;;;;;;;22.90;71.60;;;;;;5232534;28;20377;-68
2021/08/09 09:17:35;;;;;;;;;;;22.90;71.60;;;;;;5232409;28;19932;-67
2021/08/09 09:20:27;;;;;;;;;;;22.90;71.60;;;;;;5232495;28;19932;-67
2021/08/09 09:23:16;;;;;;;;;;;22.90;71.60;;;;;;5229317;28;19935;-67
2021/08/09 09:25:49;;;;;;;;;;;23.00;71.60;;;;;;5236069;28;19929;-67
2021/08/09 09:28:21;;;;;;;;;;;22.90;71.60;;;;;;5235439;28;19933;-69
2021/08/09 09:30:57;;;;;;;;;;;22.90;71.60;;;;;;5235352;28;19936;-69
2021/08/09 09:33:30;;;;;;;;;;;23.00;71.70;;;;;;5235715;28;19948;-69
2021/08/09 09:36:03;;;;;;;;;;;23.00;71.60;;;;;;5235173;28;19924;-69
2021/08/09 09:38:41;;;;;;;;;;;23.00;71.60;;;;;;5232105;28;19928;-69
2021/08/09 09:41:14;;;;;;;;;;;23.00;71.60;;;;;;5236606;28;19924;-69
2021/08/09 09:43:46;;;;;;;;;;;23.00;71.60;;;;;;5235797;28;19935;-69
2021/08/09 09:46:21;;;;;;;;;;;23.00;71.50;;;;;;5235619;28;20446;-68
2021/08/09 09:48:56;;;;;;;;;;;23.00;71.50;;;;;;5234211;28;19924;-67
2021/08/09 09:51:39;;;;;;;;;;;23.00;71.60;;;;;;5236078;28;19925;-67
2021/08/09 09:54:12;;;;;;;;;;;23.00;71.60;;;;;;5233893;28;19935;-67
2021/08/09 09:56:47;;;;;;;;;;;23.00;71.50;;;;;;5233146;28;20010;-67
2021/08/09 09:59:19;;;;;;;;;;;23.00;71.50;;;;;;5234215;28;19965;-67
2021/08/09 10:01:52;;;;;;;;;;;23.00;71.50;;;;;;5230595;28;20510;-67
2021/08/09 10:04:25;;;;;;;;;;;23.00;71.50;;;;;;5236667;28;19925;-67
2021/08/09 10:06:57;;;;;;;;;;;23.00;71.50;;;;;;5215673;28;19931;-67
2021/08/09 10:09:30;;;;;;;;;;;23.00;71.60;;;;;;5234981;28;19947;-67
2021/08/09 10:12:04;;;;;;;;;;;23.00;71.50;;;;;;5234325;28;19928;-68
2021/08/09 10:14:36;;;;;;;;;;;23.00;71.50;;;;;;5233772;28;20284;-67
2021/08/09 10:17:08;;;;;;;;;;;23.00;71.50;;;;;;5221493;28;19932;-67
2021/08/09 10:19:41;;;;;;;;;;;23.00;71.50;;;;;;5232820;28;19935;-67
2021/08/09 10:22:13;;;;;;;;;;;23.00;71.50;;;;;;5235289;28;19928;-67
2021/08/09 10:24:59;;;;;;;;;;;23.00;71.50;;;;;;5232157;28;20293;-67
2021/08/09 10:27:46;;;;;;;;;;;23.00;71.50;;;;;;5232517;28;20283;-67
2021/08/09 10:30:20;;;;;;;;;;;23.00;71.40;;;;;;5234973;28;19935;-67
2021/08/09 10:32:54;;;;;;;;;;;23.00;71.40;;;;;;5234061;28;20088;-67
2021/08/09 10:35:47;;;;;;;;;;;23.10;71.50;;;;;;5234669;28;20398;-67
2021/08/09 10:38:20;;;;;;;;;;;23.10;71.40;;;;;;5234935;28;19925;-67
2021/08/09 10:41:07;;;;;;;;;;;23.10;71.40;;;;;;5234661;28;19936;-67
2021/08/09 10:43:58;;;;;;;;;;;23.10;71.40;;;;;;5233682;28;19936;-67
2021/08/09 10:46:34;;;;;;;;;;;23.10;71.30;;;;;;5215913;28;20290;-67
2021/08/09 10:49:07;;;;;;;;;;;23.10;71.30;;;;;;5233913;28;19925;-67
2021/08/09 10:52:02;;;;;;;;;;;23.10;71.30;;;;;;5234211;28;20321;-67
2021/08/09 10:54:36;;;;;;;;;;;23.10;71.30;;;;;;5227541;28;20301;-67
2021/08/09 10:57:08;;;;;;;;;;;23.10;71.30;;;;;;5222940;28;19928;-67
2021/08/09 10:59:44;;;;;;;;;;;23.10;71.30;;;;;;5231405;28;19951;-68
2021/08/09 11:02:18;;;;;;;;;;;23.10;71.30;;;;;;5234723;28;20289;-67
2021/08/09 11:05:08;;;;;;;;;;;23.10;71.20;;;;;;5232525;28;19924;-67
2021/08/09 11:07:45;;;;;;;;;;;23.10;71.20;;;;;;5233924;28;19932;-67
2021/08/09 11:10:37;;;;;;;;;;;23.20;71.30;;;;;;5234996;28;19932;-67
2021/08/09 11:13:09;;;;;;;;;;;23.20;71.30;;;;;;5226314;28;21451;-67
2021/08/09 11:15:57;;;;;;;;;;;23.20;71.30;;;;;;5215900;28;19944;-67
2021/08/09 11:18:30;;;;;;;;;;;23.20;71.30;;;;;;5233623;28;20271;-68
2021/08/09 11:21:04;;;;;;;;;;;23.20;71.30;;;;;;5232762;28;19929;-67
2021/08/09 11:23:38;;;;;;;;;;;23.10;71.90;;;;;;5233543;28;19929;-67
2021/08/09 11:26:19;;;;;;;;;;;23.20;71.30;;;;;;5230771;28;19955;-67
2021/08/09 11:28:58;;;;;;;;;;;23.20;71.30;;;;;;5233645;28;19928;-67
2021/08/09 11:31:44;;;;;;;;;;;23.20;71.30;;;;;;5233273;28;19929;-67
2021/08/09 11:34:17;;;;;;;;;;;23.20;71.20;;;;;;5231155;28;20405;-69
2021/08/09 11:37:01;;;;;;;;;;;23.20;71.20;;;;;;5233030;28;19928;-67
2021/08/09 11:39:40;;;;;;;;;;;23.20;71.20;;;;;;5214913;28;19936;-67
2021/08/09 11:42:12;;;;;;;;;;;23.20;71.20;;;;;;5233479;28;19929;-67
2021/08/09 11:44:46;;;;;;;;;;;23.20;71.20;;;;;;5231650;28;19924;-67
2021/08/09 11:47:20;;;;;;;;;;;23.20;71.20;;;;;;5231545;28;19928;-67
2021/08/09 11:49:54;;;;;;;;;;;23.20;71.20;;;;;;5232677;28;19928;-67
2021/08/09 11:52:27;;;;;;;;;;;23.20;71.20;;;;;;5232626;28;19924;-69
2021/08/09 11:54:59;;;;;;;;;;;23.20;71.10;;;;;;5232745;28;19929;-67
2021/08/09 11:57:40;;;;;;;;;;;23.20;71.10;;;;;;5233521;28;19924;-67
2021/08/09 12:00:13;;;;;;;;;;;23.20;71.10;;;;;;5232300;28;19929;-69
2021/08/09 12:03:05;;;;;;;;;;;23.30;71.20;;;;;;5226407;28;19948;-67
2021/08/09 12:05:38;;;;;;;;;;;23.30;71.20;;;;;;5203065;28;19929;-67
2021/08/09 12:08:10;;;;;;;;;;;23.30;71.10;;;;;;5233627;28;19925;-69
2021/08/09 12:10:42;;;;;;;;;;;23.30;71.10;;;;;;5232060;28;19935;-70
2021/08/09 12:13:24;;;;;;;;;;;23.30;71.10;;;;;;5233959;28;19935;-69
2021/08/09 12:16:06;;;;;;;;;;;23.30;71.10;;;;;;5232477;28;19929;-70
2021/08/09 12:18:39;;;;;;;;;;;23.30;71.00;;;;;;5232547;28;19940;-68
2021/08/09 12:21:12;;;;;;;;;;;23.30;71.00;;;;;;5216456;28;20242;-68
2021/08/09 12:23:52;;;;;;;;;;;23.30;71.00;;;;;;5232722;28;19959;-67
2021/08/09 12:26:28;;;;;;;;;;;23.30;71.00;;;;;;5232761;28;20131;-68
2021/08/09 12:29:02;;;;;;;;;;;23.30;71.00;;;;;;5240113;23;19929;-56
2021/08/09 12:31:40;;;;;;;;;;;23.30;71.00;;;;;;5209980;28;20341;-56
2021/08/09 12:34:13;;;;;;;;;;;23.30;71.00;;;;;;5218832;28;19929;-57
2021/08/09 12:36:46;;;;;;;;;;;23.40;71.00;;;;;;5219308;28;19925;-57
2021/08/09 12:39:35;;;;;;;;;;;23.40;71.00;;;;;;5221063;28;19929;-55
2021/08/09 12:42:11;;;;;;;;;;;23.40;71.00;;;;;;5220364;28;19925;-57
2021/08/09 12:44:44;;;;;;;;;;;23.40;70.90;;;;;;5219264;28;20385;-58
2021/08/09 12:47:16;;;;;;;;;;;23.40;70.90;;;;;;5200840;28;19925;-57
2021/08/09 12:49:49;;;;;;;;;;;23.40;70.90;;;;;;5216994;28;20424;-57
2021/08/09 12:52:21;;;;;;;;;;;23.40;70.90;;;;;;5216751;28;20314;-58
2021/08/09 12:54:53;;;;;;;;;;;23.40;70.90;;;;;;5194244;28;19932;-57
2021/08/09 12:57:26;;;;;;;;;;;23.40;70.90;;;;;;5218481;28;20420;-57
2021/08/09 12:59:58;;;;;;;;;;;23.40;70.90;;;;;;5205327;28;19928;-57
2021/08/09 13:02:30;;;;;;;;;;;23.50;71.00;;;;;;5223757;28;19929;-57
2021/08/09 13:05:03;;;;;;;;;;;23.50;70.90;;;;;;5223324;28;20309;-57
2021/08/09 13:07:35;;;;;;;;;;;23.50;70.90;;;;;;5222147;28;19925;-57
2021/08/09 13:10:08;;;;;;;;;;;23.50;70.90;;;;;;5220561;28;19936;-57
2021/08/09 13:12:40;;;;;;;;;;;23.50;70.90;;;;;;5223766;28;20393;-56
2021/08/09 13:15:12;;;;;;;;;;;23.50;70.90;;;;;;5223759;28;19932;-57
2021/08/09 13:17:46;;;;;;;;;;;23.50;70.90;;;;;;5206179;28;19925;-56
2021/08/09 13:20:18;;;;;;;;;;;23.50;70.90;;;;;;5206275;28;20441;-57
2021/08/09 13:22:51;;;;;;;;;;;23.50;70.90;;;;;;5223589;28;19944;-56
2021/08/09 13:25:23;;;;;;;;;;;23.50;70.90;;;;;;5220391;28;20290;-57
2021/08/09 13:27:56;;;;;;;;;;;23.40;70.90;;;;;;5222989;28;19936;-57
2021/08/09 13:30:28;;;;;;;;;;;23.50;71.00;;;;;;5204655;28;19929;-56
2021/08/09 13:33:00;;;;;;;;;;;23.40;70.90;;;;;;5222774;28;19936;-55
2021/08/09 13:35:32;;;;;;;;;;;23.50;71.00;;;;;;5222366;28;19929;-57
2021/08/09 13:38:05;;;;;;;;;;;23.50;71.00;;;;;;5203094;28;19929;-57
2021/08/09 13:40:37;;;;;;;;;;;23.50;71.00;;;;;;5223557;28;19925;-56
2021/08/09 13:43:09;;;;;;;;;;;23.40;70.90;;;;;;5221783;28;19932;-56
2021/08/09 13:45:42;;;;;;;;;;;23.40;71.00;;;;;;5223974;28;19929;-54
2021/08/09 13:48:14;;;;;;;;;;;23.50;71.00;;;;;;5205568;28;20400;-56
2021/08/09 13:50:46;;;;;;;;;;;23.50;71.00;;;;;;5221131;28;20390;-56
2021/08/09 13:53:18;;;;;;;;;;;23.50;71.00;;;;;;5221714;28;19928;-56
2021/08/09 13:55:51;;;;;;;;;;;23.50;71.00;;;;;;5222204;28;19932;-57
2021/08/09 13:58:23;;;;;;;;;;;23.40;71.00;;;;;;5204278;28;19932;-56
2021/08/09 14:00:55;;;;;;;;;;;23.40;71.00;;;;;;5222388;28;19925;-57
2021/08/09 14:03:28;;;;;;;;;;;23.40;71.00;;;;;;5222926;28;19928;-57
2021/08/09 14:06:00;;;;;;;;;;;23.50;71.00;;;;;;5198743;28;19928;-57
2021/08/09 14:08:35;;;;;;;;;;;23.40;71.00;;;;;;5205358;28;19929;-58
2021/08/09 14:11:07;;;;;;;;;;;23.40;71.00;;;;;;5219128;28;19931;-55
2021/08/09 14:13:39;;;;;;;;;;;23.50;71.10;;;;;;5202788;28;20100;-58
2021/08/09 14:16:12;;;;;;;;;;;23.40;71.00;;;;;;5222517;28;19940;-57
2021/08/09 14:18:55;;;;;;;;;;;23.40;71.00;;;;;;5204229;28;19925;-57
2021/08/09 14:21:28;;;;;;;;;;;23.40;71.00;;;;;;5215398;28;19936;-57
2021/08/09 14:24:00;;;;;;;;;;;23.40;71.10;;;;;;5199247;28;20421;-55
2021/08/09 14:26:35;;;;;;;;;;;23.40;71.00;;;;;;5220141;28;19925;-59
2021/08/09 14:29:09;;;;;;;;;;;23.50;71.00;;;;;;5204869;28;19932;-59
2021/08/09 14:31:43;;;;;;;;;;;23.50;71.10;;;;;;5218417;28;19928;-57
2021/08/09 14:34:20;;;;;;;;;;;23.50;71.10;;;;;;5203432;28;19933;-56
2021/08/09 14:36:55;;;;;;;;;;;23.50;71.10;;;;;;5203391;28;19929;-57
2021/08/09 14:39:29;;;;;;;;;;;23.50;71.10;;;;;;5198865;28;20372;-57
2021/08/09 14:42:05;;;;;;;;;;;23.50;71.10;;;;;;5203158;28;20316;-56
2021/08/09 14:44:42;;;;;;;;;;;23.50;71.10;;;;;;5205076;28;19933;-58
2021/08/09 14:47:16;;;;;;;;;;;23.50;71.10;;;;;;5186409;28;19929;-55
2021/08/09 14:49:48;;;;;;;;;;;23.50;71.10;;;;;;5211598;28;20301;-58
2021/08/09 14:52:21;;;;;;;;;;;23.50;71.10;;;;;;5203377;28;19933;-55
2021/08/09 14:54:53;;;;;;;;;;;23.50;71.10;;;;;;5204028;28;19925;-56
2021/08/09 14:57:26;;;;;;;;;;;23.50;71.10;;;;;;5204211;28;19929;-58
2021/08/09 15:00:01;;;;;;;;;;;23.50;71.10;;;;;;5197186;28;19935;-56